createdAt,value
2018-05-07T00:00:25.154Z,10.40
2018-05-07T00:02:52.781Z,10.31
2018-05-07T00:05:20.479Z,9.94
2018-05-07T00:07:48.100Z,10.13
2018-05-07T00:10:15.739Z,10.23
2018-05-07T00:12:43.407Z,10.28
2018-05-07T00:15:11.113Z,10.26
2018-05-07T00:17:38.722Z,10.14
2018-05-07T00:20:06.303Z,10.13
2018-05-07T00:22:33.982Z,10.04
2018-05-07T00:25:01.612Z,10.13
2018-05-07T00:27:29.226Z,10.04
2018-05-07T00:29:56.872Z,10.07
2018-05-07T00:32:24.464Z,10.07
2018-05-07T00:34:52.128Z,10.09
2018-05-07T00:37:19.778Z,10.03
2018-05-07T00:39:47.527Z,10.16
2018-05-07T00:42:15.125Z,10.09
2018-05-07T00:44:42.753Z,9.97
2018-05-07T00:47:10.411Z,10.11
2018-05-07T00:49:38.045Z,10.20
2018-05-07T00:52:05.721Z,10.06
2018-05-07T00:57:27.586Z,9.82
2018-05-07T00:59:55.174Z,9.89
2018-05-07T01:02:22.830Z,9.87
2018-05-07T01:04:50.480Z,9.80
2018-05-07T01:07:18.068Z,9.63
2018-05-07T01:09:45.726Z,9.64
2018-05-07T01:12:13.382Z,9.61
2018-05-07T01:14:41.029Z,9.81
2018-05-07T01:17:08.764Z,9.74
2018-05-07T01:19:36.347Z,9.66
2018-05-07T01:22:03.948Z,9.68
2018-05-07T01:24:31.572Z,9.60
2018-05-07T01:26:59.257Z,9.71
2018-05-07T01:29:26.857Z,9.68
2018-05-07T01:31:54.530Z,9.34
2018-05-07T01:34:22.142Z,9.41
2018-05-07T01:36:49.773Z,9.49
2018-05-07T01:39:17.385Z,9.49
2018-05-07T01:41:44.988Z,9.51
2018-05-07T01:44:12.610Z,9.48
2018-05-07T01:46:40.231Z,9.56
2018-05-07T01:49:07.901Z,9.36
2018-05-07T01:51:35.528Z,9.38
2018-05-07T01:54:03.195Z,9.40
2018-05-07T01:56:30.809Z,9.44
2018-05-07T01:58:58.518Z,9.42
2018-05-07T02:01:26.126Z,9.33
2018-05-07T02:03:53.967Z,9.27
2018-05-07T02:06:21.554Z,9.32
2018-05-07T02:08:49.647Z,9.22
2018-05-07T02:11:17.243Z,9.22
2018-05-07T02:13:45.477Z,9.38
2018-05-07T02:16:13.103Z,9.46
2018-05-07T02:18:40.769Z,9.26
2018-05-07T02:21:08.453Z,9.33
2018-05-07T02:23:36.026Z,9.29
2018-05-07T02:26:03.705Z,9.26
2018-05-07T02:28:32.179Z,9.09
2018-05-07T02:30:59.839Z,9.19
2018-05-07T02:33:27.499Z,9.22
2018-05-07T02:35:55.114Z,9.11
2018-05-07T02:38:22.761Z,9.05
2018-05-07T02:40:50.344Z,9.03
2018-05-07T02:43:17.981Z,9.03
2018-05-07T02:45:45.560Z,8.99
2018-05-07T02:48:13.194Z,8.91
2018-05-07T02:50:40.845Z,9.01
2018-05-07T02:53:08.506Z,9.07
2018-05-07T02:55:36.112Z,8.94
2018-05-07T02:58:03.741Z,8.86
2018-05-07T03:00:31.375Z,8.87
2018-05-07T03:02:59.047Z,8.92
2018-05-07T03:05:26.661Z,8.78
2018-05-07T03:07:54.317Z,8.80
2018-05-07T03:10:21.947Z,8.80
2018-05-07T03:12:49.593Z,8.86
2018-05-07T03:15:17.688Z,8.78
2018-05-07T03:17:45.273Z,8.66
2018-05-07T03:20:12.896Z,8.71
2018-05-07T03:22:40.605Z,8.75
2018-05-07T03:25:08.219Z,8.70
2018-05-07T03:27:35.808Z,8.66
2018-05-07T03:30:03.446Z,8.40
2018-05-07T03:32:31.142Z,8.64
2018-05-07T03:34:58.835Z,8.44
2018-05-07T03:37:26.481Z,8.40
2018-05-07T03:39:54.089Z,8.40
2018-05-07T03:42:21.745Z,8.33
2018-05-07T03:44:49.324Z,8.45
2018-05-07T03:47:16.963Z,8.40
2018-05-07T03:49:44.598Z,8.48
2018-05-07T03:52:12.249Z,8.54
2018-05-07T03:54:39.824Z,8.38
2018-05-07T03:57:07.490Z,8.40
2018-05-07T03:59:35.073Z,8.35
2018-05-07T04:02:02.842Z,8.32
2018-05-07T04:04:30.534Z,8.43
2018-05-07T04:06:58.159Z,8.49
2018-05-07T04:09:25.825Z,8.47
2018-05-07T04:11:53.509Z,8.39
2018-05-07T04:14:21.216Z,8.27
2018-05-07T04:17:00.573Z,8.38
2018-05-07T04:19:39.972Z,8.41
2018-05-07T04:22:19.363Z,8.38
2018-05-07T04:24:47.014Z,8.45
2018-05-07T04:27:14.634Z,8.50
2018-05-07T04:29:42.352Z,8.49
2018-05-07T04:32:09.980Z,8.48
2018-05-07T04:34:37.665Z,8.49
2018-05-07T04:37:05.373Z,8.52
2018-05-07T04:39:33.027Z,8.59
2018-05-07T04:42:00.632Z,8.67
2018-05-07T04:44:28.315Z,8.66
2018-05-07T04:46:55.984Z,8.71
2018-05-07T04:49:23.599Z,8.84
2018-05-07T04:51:51.237Z,8.76
2018-05-07T04:54:19.189Z,8.82
2018-05-07T04:56:46.855Z,9.02
2018-05-07T04:59:14.511Z,9.26
2018-05-07T05:01:42.165Z,9.28
2018-05-07T05:04:09.829Z,9.33
2018-05-07T05:06:37.433Z,9.62
2018-05-07T05:09:05.198Z,9.70
2018-05-07T05:11:32.789Z,9.71
2018-05-07T05:14:00.451Z,9.73
2018-05-07T05:16:28.151Z,10.06
2018-05-07T05:18:55.866Z,10.33
2018-05-07T05:21:23.490Z,10.59
2018-05-07T05:23:51.148Z,10.90
2018-05-07T05:26:18.807Z,11.18
2018-05-07T05:28:46.470Z,11.27
2018-05-07T05:31:14.066Z,11.27
2018-05-07T05:33:41.728Z,11.45
2018-05-07T05:36:09.376Z,11.68
2018-05-07T05:38:37.075Z,11.64
2018-05-07T05:41:04.684Z,11.75
2018-05-07T05:43:32.405Z,11.92
2018-05-07T05:45:59.966Z,12.02
2018-05-07T05:48:27.562Z,12.31
2018-05-07T05:50:55.204Z,12.37
2018-05-07T05:53:22.850Z,12.47
2018-05-07T05:55:50.497Z,12.10
2018-05-07T05:58:18.099Z,12.64
2018-05-07T06:00:45.784Z,12.96
2018-05-07T06:03:13.450Z,12.97
2018-05-07T06:05:41.123Z,13.04
2018-05-07T06:08:08.757Z,13.15
2018-05-07T06:10:36.430Z,12.95
2018-05-07T06:13:04.105Z,13.27
2018-05-07T06:15:31.786Z,13.24
2018-05-07T06:17:59.391Z,13.75
2018-05-07T06:20:27.052Z,14.10
2018-05-07T06:22:54.677Z,13.86
2018-05-07T06:25:22.284Z,14.03
2018-05-07T06:27:49.945Z,13.91
2018-05-07T06:30:17.535Z,14.02
2018-05-07T06:32:45.175Z,14.20
2018-05-07T06:35:12.794Z,14.00
2018-05-07T06:37:40.447Z,13.45
2018-05-07T06:40:08.330Z,13.66
2018-05-07T06:42:36.143Z,14.11
2018-05-07T06:45:04.123Z,14.26
2018-05-07T06:47:49.174Z,14.06
2018-05-07T06:50:17.422Z,14.21
2018-05-07T06:52:45.032Z,14.45
2018-05-07T06:55:12.694Z,14.68
2018-05-07T06:57:40.296Z,14.45
2018-05-07T07:00:08.157Z,14.83
2018-05-07T07:02:35.888Z,15.54
2018-05-07T07:05:04.670Z,15.47
2018-05-07T07:07:32.330Z,15.61
2018-05-07T07:10:00.002Z,15.48
2018-05-07T07:12:27.664Z,15.75
2018-05-07T07:14:55.261Z,15.48
2018-05-07T07:17:22.948Z,15.36
2018-05-07T07:19:50.641Z,15.43
2018-05-07T07:22:18.338Z,15.15
2018-05-07T07:24:46.006Z,14.83
2018-05-07T07:27:13.678Z,15.63
2018-05-07T07:29:41.338Z,15.62
2018-05-07T07:32:08.988Z,15.64
2018-05-07T07:34:36.599Z,15.80
2018-05-07T07:37:04.331Z,15.83
2018-05-07T07:39:32.019Z,15.56
2018-05-07T07:41:59.662Z,16.18
2018-05-07T07:44:28.336Z,16.29
2018-05-07T07:46:56.159Z,16.12
2018-05-07T07:49:23.839Z,16.20
2018-05-07T07:51:51.483Z,16.18
2018-05-07T07:54:19.466Z,16.56
2018-05-07T07:56:47.245Z,16.67
2018-05-07T07:59:17.232Z,16.29
2018-05-07T08:01:44.820Z,16.66
2018-05-07T08:04:12.828Z,17.22
2018-05-07T08:06:40.769Z,17.26
2018-05-07T08:09:08.448Z,16.94
2018-05-07T08:11:36.448Z,16.68
2018-05-07T08:14:04.177Z,16.93
2018-05-07T08:16:31.827Z,17.70
2018-05-07T08:18:59.558Z,17.81
2018-05-07T08:21:27.179Z,17.78
2018-05-07T08:23:54.879Z,17.37
2018-05-07T08:26:22.614Z,17.78
2018-05-07T08:28:50.220Z,17.63
2018-05-07T08:31:17.870Z,18.06
2018-05-07T08:33:46.466Z,18.16
2018-05-07T08:36:14.149Z,19.04
2018-05-07T08:38:41.847Z,18.94
2018-05-07T08:41:09.486Z,19.14
2018-05-07T08:43:37.165Z,19.04
2018-05-07T08:46:04.775Z,19.07
2018-05-07T08:48:32.437Z,18.83
2018-05-07T08:51:00.594Z,19.16
2018-05-07T08:53:29.020Z,18.66
2018-05-07T08:55:56.688Z,19.62
2018-05-07T08:58:24.363Z,20.11
2018-05-07T09:00:52.005Z,19.99
2018-05-07T09:03:19.639Z,20.28
2018-05-07T09:05:47.295Z,20.23
2018-05-07T09:08:15.133Z,19.87
2018-05-07T09:10:42.872Z,19.93
2018-05-07T09:13:10.614Z,19.60
2018-05-07T09:15:38.329Z,19.71
2018-05-07T09:18:06.054Z,19.44
2018-05-07T09:20:33.696Z,19.61
2018-05-07T09:23:02.154Z,19.61
2018-05-07T09:25:29.781Z,19.74
2018-05-07T09:27:57.938Z,20.07
2018-05-07T09:30:25.707Z,20.02
2018-05-07T09:32:53.392Z,20.44
2018-05-07T09:35:21.113Z,20.71
2018-05-07T09:37:48.816Z,20.90
2018-05-07T09:40:16.410Z,20.35
2018-05-07T09:42:44.149Z,20.80
2018-05-07T09:45:11.830Z,20.72
2018-05-07T09:47:39.498Z,21.38
2018-05-07T09:50:07.090Z,20.73
2018-05-07T09:52:34.792Z,20.80
2018-05-07T09:55:03.538Z,20.29
2018-05-07T09:57:31.219Z,21.06
2018-05-07T09:59:59.346Z,21.15
2018-05-07T10:02:27.613Z,21.56
2018-05-07T10:04:55.288Z,21.64
2018-05-07T10:07:23.503Z,21.11
2018-05-07T10:09:51.099Z,20.77
2018-05-07T10:12:18.701Z,20.90
2018-05-07T10:14:47.023Z,21.53
2018-05-07T10:17:14.675Z,21.55
2018-05-07T10:19:42.260Z,21.41
2018-05-07T10:22:09.908Z,21.54
2018-05-07T10:24:38.779Z,22.04
2018-05-07T10:27:06.442Z,21.93
2018-05-07T10:29:34.092Z,21.68
2018-05-07T10:32:02.371Z,21.92
2018-05-07T10:34:30.046Z,22.32
2018-05-07T10:36:57.655Z,22.72
2018-05-07T10:39:25.396Z,22.72
2018-05-07T10:41:53.136Z,22.58
2018-05-07T10:44:20.740Z,22.70
2018-05-07T10:46:48.419Z,22.76
2018-05-07T10:49:16.148Z,22.62
2018-05-07T10:51:43.765Z,22.44
2018-05-07T10:54:11.574Z,22.76
2018-05-07T10:56:39.462Z,22.87
2018-05-07T10:59:08.221Z,22.74
2018-05-07T11:01:35.859Z,23.00
2018-05-07T11:04:03.538Z,22.61
2018-05-07T11:06:31.145Z,22.74
2018-05-07T11:08:58.813Z,22.92
2018-05-07T11:11:26.464Z,23.17
2018-05-07T11:13:54.080Z,23.44
2018-05-07T11:16:21.766Z,23.36
2018-05-07T11:18:49.412Z,23.54
2018-05-07T11:21:17.073Z,23.42
2018-05-07T11:23:44.928Z,23.60
2018-05-07T11:26:12.587Z,23.55
2018-05-07T11:28:41.179Z,23.74
2018-05-07T11:31:11.133Z,23.71
2018-05-07T11:33:39.709Z,23.60
2018-05-07T11:36:07.363Z,23.98
2018-05-07T11:38:35.258Z,23.89
2018-05-07T11:41:02.846Z,23.72
2018-05-07T11:43:30.529Z,23.59
2018-05-07T11:45:59.451Z,23.67
2018-05-07T11:48:27.075Z,23.98
2018-05-07T11:50:55.043Z,24.54
2018-05-07T11:53:23.643Z,24.67
2018-05-07T11:55:51.330Z,24.28
2018-05-07T11:58:19.014Z,24.28
2018-05-07T12:00:47.697Z,24.60
2018-05-07T12:03:16.173Z,24.21
2018-05-07T12:05:43.964Z,24.21
2018-05-07T12:08:11.670Z,24.38
2018-05-07T12:10:39.420Z,24.69
2018-05-07T12:13:07.059Z,25.05
2018-05-07T12:15:34.740Z,24.90
2018-05-07T12:18:02.369Z,24.54
2018-05-07T12:20:30.078Z,24.51
2018-05-07T12:22:57.839Z,24.51
2018-05-07T12:25:25.530Z,24.69
2018-05-07T12:27:53.690Z,24.62
2018-05-07T12:30:21.924Z,25.08
2018-05-07T12:32:49.604Z,24.52
2018-05-07T12:35:17.630Z,24.55
2018-05-07T12:37:45.422Z,24.46
2018-05-07T12:40:14.236Z,24.69
2018-05-07T12:42:42.201Z,24.69
2018-05-07T12:45:10.206Z,24.71
2018-05-07T12:47:39.027Z,25.08
2018-05-07T12:50:07.938Z,24.79
2018-05-07T12:52:35.597Z,25.23
2018-05-07T12:55:03.244Z,25.18
2018-05-07T12:57:30.894Z,25.02
2018-05-07T12:59:58.602Z,25.03
2018-05-07T13:02:26.352Z,25.32
2018-05-07T13:04:54.041Z,25.41
2018-05-07T13:07:21.739Z,25.20
2018-05-07T13:09:49.465Z,24.68
2018-05-07T13:12:17.256Z,24.98
2018-05-07T13:14:44.944Z,25.24
2018-05-07T13:17:12.647Z,24.78
2018-05-07T13:19:40.726Z,24.62
2018-05-07T13:22:08.422Z,25.03
2018-05-07T13:24:36.223Z,24.93
2018-05-07T13:27:03.929Z,25.17
2018-05-07T13:29:31.638Z,25.21
2018-05-07T13:32:00.323Z,24.85
2018-05-07T13:34:28.016Z,24.92
2018-05-07T13:36:55.747Z,25.19
2018-05-07T13:39:23.419Z,25.37
2018-05-07T13:41:51.087Z,25.44
2018-05-07T13:44:18.708Z,25.13
2018-05-07T13:46:46.406Z,24.81
2018-05-07T13:49:14.041Z,25.10
2018-05-07T13:51:42.791Z,25.07
2018-05-07T13:54:10.486Z,25.15
2018-05-07T13:56:38.170Z,25.12
2018-05-07T13:59:05.895Z,24.82
2018-05-07T14:01:34.720Z,25.08
2018-05-07T14:04:02.411Z,24.86
2018-05-07T14:06:30.122Z,24.97
2018-05-07T14:08:57.739Z,25.09
2018-05-07T14:11:25.387Z,24.79
2018-05-07T14:13:53.125Z,24.77
2018-05-07T14:16:20.823Z,25.06
2018-05-07T14:18:48.495Z,24.96
2018-05-07T14:21:16.249Z,25.23
2018-05-07T14:23:43.889Z,25.13
2018-05-07T14:26:11.646Z,25.33
2018-05-07T14:28:39.367Z,25.48
2018-05-07T14:31:07.050Z,25.29
2018-05-07T14:33:34.739Z,25.46
2018-05-07T14:36:02.330Z,25.34
2018-05-07T14:38:30.045Z,25.43
2018-05-07T14:40:57.699Z,25.27
2018-05-07T14:43:25.338Z,25.34
2018-05-07T14:45:53.004Z,25.39
2018-05-07T14:48:20.710Z,25.27
2018-05-07T14:50:48.366Z,25.22
2018-05-07T14:53:15.998Z,25.37
2018-05-07T14:55:43.682Z,25.40
2018-05-07T14:58:11.347Z,25.25
2018-05-07T15:00:39.045Z,25.24
2018-05-07T15:03:06.752Z,24.93
2018-05-07T15:05:34.400Z,24.94
2018-05-07T15:08:02.051Z,25.00
2018-05-07T15:10:29.777Z,25.09
2018-05-07T15:12:57.391Z,24.93
2018-05-07T15:15:25.055Z,24.79
2018-05-07T15:17:52.717Z,24.99
2018-05-07T15:20:20.372Z,24.82
2018-05-07T15:22:48.141Z,24.69
2018-05-07T15:25:15.837Z,24.75
2018-05-07T15:27:43.427Z,24.70
2018-05-07T15:30:12.092Z,24.18
2018-05-07T15:32:39.763Z,23.94
2018-05-07T15:35:07.425Z,24.12
2018-05-07T15:37:35.069Z,24.17
2018-05-07T15:40:02.777Z,23.85
2018-05-07T15:42:30.380Z,24.21
2018-05-07T15:44:58.973Z,24.45
2018-05-07T15:47:26.699Z,24.17
2018-05-07T15:49:54.316Z,23.92
2018-05-07T15:52:22.036Z,24.02
2018-05-07T15:54:49.718Z,23.83
2018-05-07T15:57:17.354Z,23.69
2018-05-07T15:59:45.735Z,23.50
2018-05-07T16:02:13.361Z,23.54
2018-05-07T16:04:41.170Z,23.34
2018-05-07T16:07:08.856Z,23.36
2018-05-07T16:09:36.581Z,23.32
2018-05-07T16:12:04.258Z,23.29
2018-05-07T16:14:31.951Z,23.21
2018-05-07T16:16:59.648Z,23.33
2018-05-07T16:19:27.329Z,23.27
2018-05-07T16:21:55.060Z,22.89
2018-05-07T16:24:22.738Z,22.71
2018-05-07T16:26:50.440Z,22.52
2018-05-07T16:29:18.322Z,22.54
2018-05-07T16:31:46.115Z,22.76
2018-05-07T16:34:13.773Z,22.74
2018-05-07T16:36:41.588Z,22.77
2018-05-07T16:39:09.361Z,22.34
2018-05-07T16:41:37.023Z,22.35
2018-05-07T16:44:04.701Z,22.51
2018-05-07T16:46:33.581Z,22.44
2018-05-07T16:49:01.387Z,22.06
2018-05-07T16:51:29.232Z,22.23
2018-05-07T16:53:57.490Z,22.41
2018-05-07T16:56:25.348Z,22.13
2018-05-07T16:58:53.054Z,22.30
2018-05-07T17:01:21.115Z,22.12
2018-05-07T17:03:50.052Z,22.11
2018-05-07T17:06:18.524Z,22.29
2018-05-07T17:08:46.263Z,22.12
2018-05-07T17:11:14.826Z,22.12
2018-05-07T17:13:43.093Z,21.91
2018-05-07T17:16:10.748Z,21.94
2018-05-07T17:18:38.477Z,21.76
2018-05-07T17:21:06.209Z,21.54
2018-05-07T17:23:34.001Z,21.35
2018-05-07T17:26:01.792Z,21.22
2018-05-07T17:28:31.031Z,21.15
2018-05-07T17:30:58.691Z,21.16
2018-05-07T17:33:26.400Z,20.97
2018-05-07T17:35:54.056Z,21.01
2018-05-07T17:38:21.761Z,20.82
2018-05-07T17:40:49.796Z,20.93
2018-05-07T17:43:17.516Z,20.78
2018-05-07T17:45:57.821Z,20.81
2018-05-07T17:48:37.300Z,20.77
2018-05-07T17:51:04.989Z,20.63
2018-05-07T17:53:32.930Z,20.56
2018-05-07T17:56:00.674Z,20.44
2018-05-07T17:58:29.143Z,20.25
2018-05-07T18:00:56.847Z,20.13
2018-05-07T18:03:24.512Z,20.03
2018-05-07T18:05:52.266Z,19.93
2018-05-07T18:08:20.028Z,19.88
2018-05-07T18:10:47.796Z,19.80
2018-05-07T18:13:15.448Z,19.56
2018-05-07T18:15:43.461Z,19.25
2018-05-07T18:18:11.953Z,19.20
2018-05-07T18:20:39.935Z,19.12
2018-05-07T18:23:07.687Z,18.80
2018-05-07T18:25:35.535Z,18.96
2018-05-07T18:28:04.524Z,18.78
2018-05-07T18:30:32.206Z,18.63
2018-05-07T18:32:59.879Z,18.59
2018-05-07T18:35:27.584Z,18.35
2018-05-07T18:37:56.389Z,18.47
2018-05-07T18:40:24.998Z,18.41
2018-05-07T18:42:52.672Z,18.31
2018-05-07T18:45:20.356Z,18.00
2018-05-07T18:47:48.684Z,17.76
2018-05-07T18:50:16.373Z,18.11
2018-05-07T18:52:44.070Z,17.89
2018-05-07T18:55:12.644Z,17.63
2018-05-07T18:57:40.330Z,17.68
2018-05-07T19:00:08.011Z,17.78
2018-05-07T19:02:35.698Z,17.72
2018-05-07T19:05:03.918Z,17.58
2018-05-07T19:07:31.756Z,17.22
2018-05-07T19:09:59.369Z,17.21
2018-05-07T19:12:27.147Z,17.04
2018-05-07T19:14:54.857Z,17.06
2018-05-07T19:17:26.117Z,17.06
2018-05-07T19:19:54.838Z,16.97
2018-05-07T19:22:28.501Z,16.82
2018-05-07T19:24:59.203Z,16.71
2018-05-07T19:27:28.185Z,16.70
2018-05-07T19:29:56.066Z,16.65
2018-05-07T19:32:23.749Z,16.45
2018-05-07T19:34:51.740Z,16.37
2018-05-07T19:37:19.462Z,16.35
2018-05-07T19:39:47.212Z,16.17
2018-05-07T19:42:14.922Z,16.28
2018-05-07T19:44:42.713Z,16.08
2018-05-07T19:47:10.604Z,16.18
2018-05-07T19:49:38.349Z,15.99
2018-05-07T19:52:07.294Z,16.01
2018-05-07T19:54:35.094Z,15.75
2018-05-07T19:57:02.744Z,15.79
2018-05-07T19:59:30.489Z,15.83
2018-05-07T20:01:58.207Z,15.67
2018-05-07T20:04:25.918Z,15.38
2018-05-07T20:06:53.757Z,15.37
2018-05-07T20:09:21.469Z,15.26
2018-05-07T20:11:50.049Z,15.22
2018-05-07T20:14:17.917Z,15.23
2018-05-07T20:16:46.357Z,14.96
2018-05-07T20:19:14.313Z,14.88
2018-05-07T20:21:41.984Z,14.91
2018-05-07T20:24:09.660Z,14.83
2018-05-07T20:26:38.187Z,14.89
2018-05-07T20:29:06.011Z,14.93
2018-05-07T20:31:34.555Z,15.14
2018-05-07T20:34:02.354Z,15.16
2018-05-07T20:36:30.135Z,15.01
2018-05-07T20:38:57.804Z,14.75
2018-05-07T20:41:25.591Z,14.86
2018-05-07T20:43:54.330Z,14.91
2018-05-07T20:46:22.220Z,14.82
2018-05-07T20:48:49.977Z,14.54
2018-05-07T20:51:17.715Z,14.71
2018-05-07T20:53:45.433Z,14.60
2018-05-07T20:56:13.056Z,14.70
2018-05-07T20:58:40.970Z,14.64
2018-05-07T21:01:08.599Z,14.55
2018-05-07T21:03:36.251Z,14.46
2018-05-07T21:06:04.060Z,14.54
2018-05-07T21:08:31.726Z,14.34
2018-05-07T21:10:59.379Z,14.09
2018-05-07T21:13:26.985Z,14.21
2018-05-07T21:15:54.651Z,14.26
2018-05-07T21:18:23.443Z,14.44
2018-05-07T21:20:51.135Z,14.33
2018-05-07T21:23:18.912Z,14.33
2018-05-07T21:25:46.840Z,14.12
2018-05-07T21:28:14.472Z,14.37
2018-05-07T21:30:42.113Z,14.30
2018-05-07T21:33:09.725Z,14.12
2018-05-07T21:35:37.426Z,14.22
2018-05-07T21:38:05.117Z,14.26
2018-05-07T21:40:32.757Z,14.27
2018-05-07T21:43:01.505Z,14.18
2018-05-07T21:45:29.146Z,14.17
2018-05-07T21:47:56.909Z,14.22
2018-05-07T21:50:24.566Z,14.36
2018-05-07T21:52:52.199Z,14.10
2018-05-07T21:55:19.872Z,14.12
2018-05-07T21:57:47.533Z,14.00
2018-05-07T22:00:16.068Z,14.06
2018-05-07T22:02:43.652Z,14.16
2018-05-07T22:05:11.332Z,14.22
2018-05-07T22:07:39.148Z,14.32
2018-05-07T22:10:06.785Z,14.14
2018-05-07T22:12:34.402Z,14.09
2018-05-07T22:15:02.101Z,14.07
2018-05-07T22:17:29.745Z,14.00
2018-05-07T22:19:57.385Z,13.82
2018-05-07T22:22:25.032Z,13.72
2018-05-07T22:24:52.708Z,13.65
2018-05-07T22:27:20.337Z,13.65
2018-05-07T22:29:47.987Z,13.76
2018-05-07T22:32:15.765Z,13.48
2018-05-07T22:34:43.411Z,13.47
2018-05-07T22:37:11.027Z,13.44
2018-05-07T22:39:38.726Z,13.45
2018-05-07T22:42:06.312Z,13.41
2018-05-07T22:44:34.033Z,13.46
2018-05-07T22:47:01.640Z,13.42
2018-05-07T22:49:29.291Z,13.43
2018-05-07T22:51:56.925Z,13.47
2018-05-07T22:54:24.603Z,13.48
2018-05-07T22:56:52.214Z,13.48
2018-05-07T22:59:19.876Z,13.38
2018-05-07T23:01:47.508Z,13.36
2018-05-07T23:04:15.158Z,13.37
2018-05-07T23:06:42.764Z,13.34
2018-05-07T23:09:10.404Z,13.37
2018-05-07T23:11:38.041Z,13.41
2018-05-07T23:14:05.704Z,13.23
2018-05-07T23:16:33.410Z,13.09
2018-05-07T23:19:01.023Z,13.12
2018-05-07T23:21:28.633Z,13.08
2018-05-07T23:23:56.263Z,13.15
2018-05-07T23:26:24.245Z,12.94
2018-05-07T23:28:51.898Z,12.87
2018-05-07T23:31:19.778Z,12.79
2018-05-07T23:33:47.656Z,12.91
2018-05-07T23:36:15.257Z,12.98
2018-05-07T23:38:42.908Z,12.87
2018-05-07T23:41:10.572Z,12.76
2018-05-07T23:43:38.223Z,12.62
2018-05-07T23:46:05.886Z,12.68
2018-05-07T23:48:33.553Z,12.60
2018-05-07T23:51:01.152Z,12.64
2018-05-07T23:53:28.840Z,12.79
2018-05-07T23:55:56.436Z,12.80
2018-05-07T23:58:24.079Z,12.81
